createdAt,value
2022-09-26T00:01:43.160Z,10.59
2022-09-26T00:04:22.734Z,10.37
2022-09-26T00:06:53.059Z,10.47
2022-09-26T00:09:22.219Z,10.38
2022-09-26T00:11:50.593Z,10.32
2022-09-26T00:14:22.569Z,10.37
2022-09-26T00:16:51.174Z,10.38
2022-09-26T00:19:21.181Z,10.40
2022-09-26T00:21:49.802Z,10.31
2022-09-26T00:24:18.246Z,10.35
2022-09-26T00:26:46.579Z,10.45
2022-09-26T00:29:15.420Z,10.33
2022-09-26T00:31:47.383Z,10.38
2022-09-26T00:34:19.215Z,10.34
2022-09-26T00:36:50.737Z,10.41
2022-09-26T00:39:19.575Z,10.17
2022-09-26T00:41:48.018Z,10.16
2022-09-26T00:44:44.851Z,10.24
2022-09-26T00:47:46.423Z,10.14
2022-09-26T00:50:21.479Z,10.12
2022-09-26T00:52:57.997Z,10.06
2022-09-26T00:55:35.010Z,10.13
2022-09-26T00:58:11.104Z,10.14
2022-09-26T01:00:42.443Z,10.16
2022-09-26T01:03:10.924Z,10.29
2022-09-26T01:05:39.872Z,10.23
2022-09-26T01:08:10.598Z,10.39
2022-09-26T01:10:39.013Z,10.24
2022-09-26T01:13:09.748Z,10.15
2022-09-26T01:15:38.259Z,10.38
2022-09-26T01:18:07.648Z,10.21
2022-09-26T01:20:50.546Z,10.18
2022-09-26T01:23:44.292Z,10.30
2022-09-26T01:26:50.945Z,10.24
2022-09-26T01:30:21.383Z,10.31
2022-09-26T01:33:49.804Z,10.39
2022-09-26T01:36:52.532Z,10.37
2022-09-26T01:39:41.128Z,10.45
2022-09-26T01:42:22.263Z,10.43
2022-09-26T01:44:59.088Z,10.47
2022-09-26T01:47:30.903Z,10.45
2022-09-26T01:50:08.047Z,10.48
2022-09-26T01:52:40.493Z,10.70
2022-09-26T01:55:12.711Z,10.62
2022-09-26T01:57:45.493Z,10.66
2022-09-26T02:00:14.450Z,10.66
2022-09-26T02:02:48.276Z,10.59
2022-09-26T02:05:26.642Z,10.68
2022-09-26T02:07:59.677Z,10.71
2022-09-26T02:10:35.100Z,10.72
2022-09-26T02:13:10.623Z,10.82
2022-09-26T02:15:40.536Z,10.70
2022-09-26T02:18:16.634Z,10.74
2022-09-26T02:20:55.686Z,10.80
2022-09-26T02:23:23.952Z,10.67
2022-09-26T02:25:55.622Z,10.63
2022-09-26T02:28:24.085Z,10.68
2022-09-26T02:30:55.276Z,10.64
2022-09-26T02:33:25.942Z,10.75
2022-09-26T02:35:55.086Z,10.80
2022-09-26T02:38:26.274Z,10.68
2022-09-26T02:41:16.509Z,10.73
2022-09-26T02:44:24.188Z,10.69
2022-09-26T02:47:22.385Z,10.60
2022-09-26T02:50:11.527Z,10.65
2022-09-26T02:52:53.585Z,10.59
2022-09-26T02:55:40.355Z,10.59
2022-09-26T02:58:19.050Z,10.63
2022-09-26T03:01:00.766Z,10.60
2022-09-26T03:03:36.785Z,10.52
2022-09-26T03:06:09.856Z,10.63
2022-09-26T03:08:43.775Z,10.48
2022-09-26T03:11:17.139Z,10.50
2022-09-26T03:13:47.205Z,10.49
2022-09-26T03:16:16.238Z,10.55
2022-09-26T03:18:53.478Z,10.55
2022-09-26T03:21:22.752Z,10.56
2022-09-26T03:23:52.608Z,10.67
2022-09-26T03:26:24.645Z,10.58
2022-09-26T03:28:59.978Z,10.55
2022-09-26T03:31:31.390Z,10.72
2022-09-26T03:34:05.974Z,10.61
2022-09-26T03:36:34.495Z,10.55
2022-09-26T03:39:05.948Z,10.53
2022-09-26T03:41:41.445Z,10.56
2022-09-26T03:44:38.965Z,10.53
2022-09-26T03:47:26.677Z,10.39
2022-09-26T03:49:55.118Z,10.46
2022-09-26T03:52:25.020Z,10.40
2022-09-26T03:54:54.805Z,10.41
2022-09-26T03:57:23.703Z,10.48
2022-09-26T03:59:57.588Z,10.43
2022-09-26T04:02:33.398Z,10.50
2022-09-26T04:05:18.260Z,10.31
2022-09-26T04:07:47.165Z,10.48
2022-09-26T04:10:17.071Z,10.41
2022-09-26T04:12:46.585Z,10.49
2022-09-26T04:15:16.346Z,10.34
2022-09-26T04:17:45.238Z,10.35
2022-09-26T04:20:14.429Z,10.24
2022-09-26T04:22:44.386Z,10.31
2022-09-26T04:25:12.650Z,10.26
2022-09-26T04:27:42.240Z,10.26
2022-09-26T04:30:12.961Z,10.29
2022-09-26T04:32:49.855Z,10.23
2022-09-26T04:35:30.227Z,10.22
2022-09-26T04:37:58.449Z,10.22
2022-09-26T04:40:26.874Z,10.16
2022-09-26T04:43:07.272Z,10.16
2022-09-26T04:45:35.524Z,10.16
2022-09-26T04:48:04.362Z,10.11
2022-09-26T04:50:57.312Z,10.22
2022-09-26T04:53:26.371Z,10.23
2022-09-26T04:56:04.676Z,10.35
2022-09-26T04:58:34.957Z,10.23
2022-09-26T05:01:04.994Z,10.23
2022-09-26T05:03:45.509Z,10.18
2022-09-26T05:06:17.460Z,10.16
2022-09-26T05:08:48.549Z,10.09
2022-09-26T05:11:22.210Z,10.28
2022-09-26T05:13:54.007Z,10.17
2022-09-26T05:16:24.049Z,10.32
2022-09-26T05:18:55.940Z,10.17
2022-09-26T05:21:27.083Z,10.20
2022-09-26T05:24:12.929Z,10.22
2022-09-26T05:26:44.720Z,10.19
2022-09-26T05:29:14.886Z,10.24
2022-09-26T05:32:13.723Z,10.42
2022-09-26T05:34:44.386Z,10.43
2022-09-26T05:37:16.189Z,10.40
2022-09-26T05:40:01.700Z,10.38
2022-09-26T05:42:31.742Z,10.38
2022-09-26T05:45:03.236Z,10.33
2022-09-26T05:47:36.197Z,10.39
2022-09-26T05:50:09.704Z,10.41
2022-09-26T05:52:38.969Z,10.40
2022-09-26T05:55:08.272Z,10.32
2022-09-26T05:57:58.401Z,10.47
2022-09-26T06:00:34.147Z,10.56
2022-09-26T06:03:03.920Z,10.61
2022-09-26T06:05:44.670Z,10.57
2022-09-26T06:08:17.403Z,10.70
2022-09-26T06:11:07.190Z,10.59
2022-09-26T06:13:38.044Z,10.60
2022-09-26T06:16:11.460Z,10.59
2022-09-26T06:18:41.960Z,10.77
2022-09-26T06:21:13.174Z,10.74
2022-09-26T06:23:42.117Z,10.64
2022-09-26T06:26:20.669Z,10.75
2022-09-26T06:28:50.565Z,10.80
2022-09-26T06:31:22.027Z,10.76
2022-09-26T06:34:08.765Z,10.78
2022-09-26T06:36:46.900Z,10.84
2022-09-26T06:39:16.169Z,10.78
2022-09-26T06:41:46.564Z,10.87
2022-09-26T06:44:32.321Z,10.97
2022-09-26T06:47:20.855Z,11.05
2022-09-26T06:49:50.489Z,11.00
2022-09-26T06:52:34.170Z,11.03
2022-09-26T06:55:04.326Z,11.16
2022-09-26T06:57:40.051Z,11.10
2022-09-26T07:00:14.447Z,11.14
2022-09-26T07:03:08.267Z,11.02
2022-09-26T07:05:51.795Z,10.96
2022-09-26T07:08:28.737Z,11.10
2022-09-26T07:11:32.315Z,10.83
2022-09-26T07:13:54.897Z,10.70
2022-09-26T07:16:23.898Z,10.67
2022-09-26T07:19:01.396Z,10.59
2022-09-26T07:21:40.667Z,10.68
2022-09-26T07:24:27.380Z,10.68
2022-09-26T07:26:55.722Z,10.55
2022-09-26T07:29:24.078Z,10.67
2022-09-26T07:31:53.424Z,10.61
2022-09-26T07:34:37.566Z,10.52
2022-09-26T07:37:07.527Z,10.58
2022-09-26T07:39:35.890Z,10.56
2022-09-26T07:42:04.848Z,10.84
2022-09-26T07:47:39.830Z,10.66
2022-09-26T07:50:16.832Z,10.70
2022-09-26T07:53:04.359Z,10.67
2022-09-26T07:55:32.879Z,10.95
2022-09-26T07:58:26.249Z,11.11
2022-09-26T08:01:19.032Z,11.00
2022-09-26T08:03:50.129Z,10.93
2022-09-26T08:06:35.320Z,10.93
2022-09-26T08:09:04.236Z,11.11
2022-09-26T08:11:51.390Z,10.93
2022-09-26T08:14:33.801Z,10.98
2022-09-26T08:17:14.592Z,11.03
2022-09-26T08:19:43.401Z,11.10
2022-09-26T08:22:14.617Z,11.10
2022-09-26T08:24:45.147Z,11.18
2022-09-26T08:27:34.080Z,11.35
2022-09-26T08:30:04.263Z,11.47
2022-09-26T08:32:33.853Z,11.35
2022-09-26T08:35:02.779Z,11.44
2022-09-26T08:37:35.732Z,11.35
2022-09-26T08:40:29.601Z,11.24
2022-09-26T08:43:07.015Z,11.46
2022-09-26T08:46:33.343Z,11.41
2022-09-26T08:49:51.064Z,11.42
2022-09-26T08:52:31.687Z,11.67
2022-09-26T08:55:09.146Z,11.37
2022-09-26T08:57:43.378Z,11.62
2022-09-26T09:00:21.749Z,11.60
2022-09-26T09:03:07.759Z,11.65
2022-09-26T09:05:41.011Z,11.60
2022-09-26T09:08:17.358Z,11.26
2022-09-26T09:11:21.333Z,11.34
2022-09-26T09:14:03.748Z,11.51
2022-09-26T09:17:20.371Z,11.33
2022-09-26T09:20:20.763Z,11.24
2022-09-26T09:23:25.988Z,11.21
2022-09-26T09:29:22.800Z,11.18
2022-09-26T09:32:22.880Z,11.33
2022-09-26T09:35:17.472Z,11.51
2022-09-26T09:38:03.953Z,11.44
2022-09-26T09:40:46.808Z,11.62
2022-09-26T09:43:27.120Z,11.50
2022-09-26T09:46:03.261Z,11.71
2022-09-26T09:48:32.031Z,11.97
2022-09-26T09:51:27.929Z,12.09
2022-09-26T09:54:20.983Z,11.77
2022-09-26T09:56:57.134Z,12.14
2022-09-26T09:59:53.964Z,11.92
2022-09-26T10:02:34.476Z,11.97
2022-09-26T10:05:17.371Z,12.15
2022-09-26T10:07:48.427Z,11.93
2022-09-26T10:10:49.802Z,12.07
2022-09-26T10:13:38.886Z,12.14
2022-09-26T10:16:20.959Z,12.45
2022-09-26T10:19:03.338Z,12.49
2022-09-26T10:21:35.451Z,12.36
2022-09-26T10:24:05.140Z,12.44
2022-09-26T10:26:49.690Z,12.74
2022-09-26T10:29:35.157Z,12.51
2022-09-26T10:32:06.014Z,12.54
2022-09-26T10:34:39.202Z,12.73
2022-09-26T10:37:22.904Z,12.84
2022-09-26T10:40:12.266Z,13.08
2022-09-26T10:42:43.208Z,13.18
2022-09-26T10:45:17.922Z,13.14
2022-09-26T10:48:07.676Z,13.31
2022-09-26T10:51:02.036Z,13.34
2022-09-26T10:53:44.000Z,13.79
2022-09-26T10:56:23.112Z,13.99
2022-09-26T10:58:57.333Z,13.80
2022-09-26T11:01:30.180Z,13.68
2022-09-26T11:04:36.296Z,13.78
2022-09-26T11:07:30.362Z,13.80
2022-09-26T11:10:24.084Z,13.59
2022-09-26T11:13:04.130Z,13.72
2022-09-26T11:15:32.795Z,13.65
2022-09-26T11:18:02.055Z,13.82
2022-09-26T11:20:51.690Z,13.69
2022-09-26T11:23:36.738Z,13.97
2022-09-26T11:26:17.049Z,14.05
2022-09-26T11:28:51.718Z,14.08
2022-09-26T11:31:50.053Z,14.31
2022-09-26T11:34:32.107Z,14.02
2022-09-26T11:37:32.761Z,14.04
2022-09-26T11:40:38.458Z,14.02
2022-09-26T11:43:24.376Z,13.74
2022-09-26T11:46:21.799Z,13.77
2022-09-26T11:49:46.121Z,13.82
2022-09-26T11:53:06.884Z,13.95
2022-09-26T11:55:55.148Z,14.05
2022-09-26T11:58:38.314Z,13.79
2022-09-26T12:01:19.819Z,13.73
2022-09-26T12:04:21.600Z,13.86
2022-09-26T12:06:57.468Z,13.80
2022-09-26T12:09:47.358Z,13.62
2022-09-26T12:12:24.386Z,12.94
2022-09-26T12:15:15.023Z,12.70
2022-09-26T12:17:59.645Z,12.67
2022-09-26T12:20:39.386Z,12.52
2022-09-26T12:23:21.490Z,12.57
2022-09-26T12:26:08.857Z,12.62
2022-09-26T12:29:05.185Z,12.93
2022-09-26T12:31:53.512Z,13.17
2022-09-26T12:34:44.761Z,13.32
2022-09-26T12:37:37.295Z,13.48
2022-09-26T12:40:41.095Z,14.22
2022-09-26T12:44:00.250Z,14.00
2022-09-26T12:47:16.075Z,13.92
2022-09-26T12:50:13.412Z,13.46
2022-09-26T12:53:19.176Z,13.49
2022-09-26T12:56:00.671Z,13.28
2022-09-26T12:58:46.323Z,13.50
2022-09-26T13:01:44.733Z,13.19
2022-09-26T13:04:56.907Z,13.25
2022-09-26T13:07:42.184Z,13.54
2022-09-26T13:10:39.344Z,13.20
2022-09-26T13:13:34.150Z,13.38
2022-09-26T13:16:21.407Z,13.44
2022-09-26T13:18:56.051Z,13.41
2022-09-26T13:21:40.521Z,13.26
2022-09-26T13:24:18.668Z,13.28
2022-09-26T13:26:54.571Z,13.23
2022-09-26T13:29:28.790Z,13.47
2022-09-26T13:32:20.399Z,13.53
2022-09-26T13:34:54.617Z,13.37
2022-09-26T13:37:38.371Z,13.36
2022-09-26T13:40:24.953Z,13.57
2022-09-26T13:43:09.101Z,13.49
2022-09-26T13:45:55.261Z,13.17
2022-09-26T13:48:42.189Z,13.26
2022-09-26T13:51:20.427Z,13.30
2022-09-26T13:54:03.917Z,13.05
2022-09-26T13:56:50.668Z,12.91
2022-09-26T13:59:35.890Z,13.00
2022-09-26T14:02:25.023Z,12.82
2022-09-26T14:05:10.907Z,12.80
2022-09-26T14:08:11.296Z,12.93
2022-09-26T14:10:41.882Z,12.90
2022-09-26T14:13:21.831Z,13.25
2022-09-26T14:16:26.511Z,13.19
2022-09-26T14:19:04.298Z,13.08
2022-09-26T14:21:42.907Z,13.30
2022-09-26T14:24:39.521Z,13.24
2022-09-26T14:27:43.613Z,13.05
2022-09-26T14:30:29.251Z,12.91
2022-09-26T14:33:03.576Z,12.81
2022-09-26T14:35:35.465Z,12.54
2022-09-26T14:38:15.009Z,12.64
2022-09-26T14:40:54.789Z,12.46
2022-09-26T14:43:26.291Z,12.66
2022-09-26T14:46:04.328Z,12.67
2022-09-26T14:48:37.462Z,12.74
2022-09-26T14:51:22.447Z,12.77
2022-09-26T14:54:00.904Z,12.89
2022-09-26T14:56:43.132Z,12.83
2022-09-26T14:59:45.563Z,12.77
2022-09-26T15:02:41.224Z,12.76
2022-09-26T15:05:26.341Z,12.78
2022-09-26T15:07:57.093Z,12.69
2022-09-26T15:10:40.258Z,12.70
2022-09-26T15:13:24.329Z,12.76
2022-09-26T15:16:05.680Z,12.75
2022-09-26T15:18:40.638Z,12.65
2022-09-26T15:21:26.382Z,12.71
2022-09-26T15:23:58.643Z,12.85
2022-09-26T15:26:33.506Z,12.61
2022-09-26T15:29:02.740Z,12.86
2022-09-26T15:31:39.681Z,12.63
2022-09-26T15:34:16.278Z,12.81
2022-09-26T15:36:49.685Z,12.57
2022-09-26T15:39:42.036Z,12.51
2022-09-26T15:42:45.719Z,12.39
2022-09-26T15:45:27.541Z,12.66
2022-09-26T15:47:57.199Z,12.54
2022-09-26T15:50:35.057Z,12.56
2022-09-26T15:53:09.601Z,12.41
2022-09-26T15:55:50.992Z,12.38
2022-09-26T15:58:25.007Z,12.12
2022-09-26T16:00:54.429Z,12.09
2022-09-26T16:03:52.726Z,11.88
2022-09-26T16:06:35.241Z,11.78
2022-09-26T16:09:17.187Z,11.59
2022-09-26T16:11:50.047Z,11.75
2022-09-26T16:14:27.556Z,11.65
2022-09-26T16:17:01.931Z,11.61
2022-09-26T16:19:35.736Z,11.79
2022-09-26T16:22:24.065Z,11.75
2022-09-26T16:24:52.909Z,11.64
2022-09-26T16:27:27.214Z,11.76
2022-09-26T16:30:04.987Z,11.53
2022-09-26T16:32:34.144Z,11.42
2022-09-26T16:35:19.707Z,11.65
2022-09-26T16:37:59.559Z,11.55
2022-09-26T16:40:28.895Z,11.36
2022-09-26T16:43:04.389Z,11.44
2022-09-26T16:45:34.618Z,11.35
2022-09-26T16:48:03.579Z,11.31
2022-09-26T16:50:36.638Z,11.43
2022-09-26T16:53:11.059Z,11.21
2022-09-26T16:55:39.632Z,11.08
2022-09-26T16:58:08.419Z,11.14
2022-09-26T17:00:56.108Z,11.03
2022-09-26T17:03:28.127Z,11.02
2022-09-26T17:05:58.551Z,10.97
2022-09-26T17:08:28.747Z,11.05
2022-09-26T17:11:02.330Z,10.95
2022-09-26T17:13:35.292Z,10.79
2022-09-26T17:16:06.150Z,10.85
2022-09-26T17:18:34.953Z,10.89
2022-09-26T17:21:04.060Z,10.85
2022-09-26T17:23:41.003Z,10.72
2022-09-26T17:26:21.531Z,10.78
2022-09-26T17:28:52.904Z,10.80
2022-09-26T17:31:23.232Z,10.80
2022-09-26T17:33:54.342Z,10.73
2022-09-26T17:36:25.916Z,10.76
2022-09-26T17:38:57.862Z,10.63
2022-09-26T17:41:28.027Z,10.62
2022-09-26T17:44:00.886Z,10.68
2022-09-26T17:46:30.986Z,10.71
2022-09-26T17:49:05.015Z,10.64
2022-09-26T17:51:34.307Z,10.54
2022-09-26T17:54:03.059Z,10.53
2022-09-26T17:56:31.361Z,10.53
2022-09-26T17:59:00.376Z,10.42
2022-09-26T18:01:34.254Z,10.57
2022-09-26T18:04:12.664Z,10.58
2022-09-26T18:06:43.026Z,10.45
2022-09-26T18:09:16.580Z,10.59
2022-09-26T18:11:55.743Z,10.61
2022-09-26T18:14:24.209Z,10.41
2022-09-26T18:16:54.341Z,10.49
2022-09-26T18:19:23.098Z,10.48
2022-09-26T18:21:56.105Z,10.48
2022-09-26T18:24:29.153Z,10.49
2022-09-26T18:27:03.741Z,10.60
2022-09-26T18:29:36.962Z,10.57
2022-09-26T18:32:20.033Z,10.67
2022-09-26T18:34:48.508Z,10.68
2022-09-26T18:37:17.514Z,10.70
2022-09-26T18:39:47.823Z,10.65
2022-09-26T18:42:22.506Z,10.56
2022-09-26T18:44:54.281Z,10.67
2022-09-26T18:47:24.522Z,10.59
2022-09-26T18:49:53.510Z,10.62
2022-09-26T18:52:22.633Z,10.74
2022-09-26T18:55:11.026Z,10.68
2022-09-26T18:57:57.658Z,10.81
2022-09-26T19:00:26.921Z,10.77
2022-09-26T19:02:57.729Z,10.84
2022-09-26T19:05:26.973Z,10.66
2022-09-26T19:07:55.601Z,10.84
2022-09-26T19:10:24.943Z,10.80
2022-09-26T19:12:53.343Z,10.84
2022-09-26T19:15:22.232Z,10.77
2022-09-26T19:17:51.301Z,10.82
2022-09-26T19:20:21.104Z,10.77
2022-09-26T19:22:50.679Z,10.85
2022-09-26T19:25:19.638Z,11.02
2022-09-26T19:27:52.154Z,10.95
2022-09-26T19:30:22.526Z,10.73
2022-09-26T19:32:53.712Z,10.78
2022-09-26T19:35:29.283Z,10.81
2022-09-26T19:37:58.748Z,10.80
2022-09-26T19:40:28.953Z,10.95
2022-09-26T19:42:58.132Z,10.89
2022-09-26T19:45:32.145Z,10.98
2022-09-26T19:48:01.091Z,10.98
2022-09-26T19:50:33.771Z,10.81
2022-09-26T19:53:04.394Z,10.88
2022-09-26T19:55:33.746Z,10.92
2022-09-26T19:58:12.182Z,11.08
2022-09-26T20:00:44.513Z,11.02
2022-09-26T20:03:18.517Z,11.00
2022-09-26T20:05:49.352Z,11.04
2022-09-26T20:08:22.039Z,10.96
2022-09-26T20:10:50.806Z,11.04
2022-09-26T20:13:20.179Z,11.01
2022-09-26T20:15:49.614Z,11.04
2022-09-26T20:18:21.852Z,10.98
2022-09-26T20:20:55.888Z,11.00
2022-09-26T20:23:28.625Z,10.88
2022-09-26T20:25:58.815Z,10.95
2022-09-26T20:28:27.352Z,10.97
2022-09-26T20:30:58.406Z,11.01
2022-09-26T20:33:28.444Z,11.04
2022-09-26T20:36:03.849Z,10.85
2022-09-26T20:38:39.367Z,10.85
2022-09-26T20:41:15.293Z,10.74
2022-09-26T20:43:49.505Z,10.79
2022-09-26T20:46:20.916Z,10.77
2022-09-26T20:48:51.191Z,10.73
2022-09-26T20:51:26.018Z,10.82
2022-09-26T20:53:54.737Z,10.88
2022-09-26T20:56:23.141Z,10.85
2022-09-26T20:58:52.231Z,10.81
2022-09-26T21:01:23.267Z,10.79
2022-09-26T21:03:55.282Z,10.74
2022-09-26T21:06:29.897Z,10.74
2022-09-26T21:08:58.853Z,10.76
2022-09-26T21:11:27.558Z,10.74
2022-09-26T21:13:56.485Z,10.79
2022-09-26T21:16:24.988Z,10.77
2022-09-26T21:18:54.514Z,10.83
2022-09-26T21:21:27.030Z,10.78
2022-09-26T21:24:19.612Z,10.85
2022-09-26T21:26:51.059Z,10.69
2022-09-26T21:29:19.312Z,10.57
2022-09-26T21:31:51.264Z,10.60
2022-09-26T21:34:23.207Z,10.47
2022-09-26T21:36:56.956Z,10.52
2022-09-26T21:39:27.294Z,10.52
2022-09-26T21:41:59.544Z,10.51
2022-09-26T21:44:33.595Z,10.38
2022-09-26T21:47:02.615Z,10.35
2022-09-26T21:49:32.333Z,10.39
2022-09-26T21:52:08.673Z,10.41
2022-09-26T21:54:43.871Z,10.25
2022-09-26T21:57:18.014Z,10.17
2022-09-26T21:59:47.551Z,10.14
2022-09-26T22:02:16.320Z,10.13
2022-09-26T22:04:44.890Z,10.15
2022-09-26T22:07:15.724Z,10.24
2022-09-26T22:09:44.121Z,10.13
2022-09-26T22:12:12.638Z,10.07
2022-09-26T22:14:41.614Z,10.28
2022-09-26T22:17:10.388Z,10.22
2022-09-26T22:19:38.952Z,10.19
2022-09-26T22:22:07.799Z,10.16
2022-09-26T22:24:37.944Z,10.07
2022-09-26T22:27:07.531Z,10.16
2022-09-26T22:29:36.065Z,10.09
2022-09-26T22:32:06.091Z,10.10
2022-09-26T22:34:34.565Z,10.04
2022-09-26T22:37:03.260Z,10.05
2022-09-26T22:39:32.817Z,10.06
2022-09-26T22:42:02.619Z,10.08
2022-09-26T22:44:31.805Z,10.02
2022-09-26T22:47:00.407Z,10.07
2022-09-26T22:49:29.187Z,10.00
2022-09-26T22:51:57.970Z,10.09
2022-09-26T22:54:26.365Z,9.96
2022-09-26T22:56:54.743Z,9.92
2022-09-26T22:59:24.792Z,9.92
2022-09-26T23:01:53.558Z,9.85
2022-09-26T23:04:22.177Z,9.78
2022-09-26T23:06:50.831Z,9.74
2022-09-26T23:09:19.625Z,9.82
2022-09-26T23:11:48.014Z,9.80
2022-09-26T23:14:16.810Z,9.72
2022-09-26T23:16:46.913Z,9.72
2022-09-26T23:19:15.452Z,9.71
2022-09-26T23:21:43.984Z,9.67
2022-09-26T23:24:12.526Z,9.60
2022-09-26T23:26:41.404Z,9.68
2022-09-26T23:29:10.547Z,9.67
2022-09-26T23:31:39.394Z,9.55
2022-09-26T23:34:10.014Z,9.50
2022-09-26T23:36:39.089Z,9.42
2022-09-26T23:39:07.757Z,9.44
2022-09-26T23:41:36.513Z,9.42
2022-09-26T23:44:04.931Z,9.43
2022-09-26T23:46:33.498Z,9.50
2022-09-26T23:49:01.838Z,9.61
2022-09-26T23:51:31.613Z,9.45
2022-09-26T23:54:00.046Z,9.45
2022-09-26T23:56:28.581Z,9.50
2022-09-26T23:58:58.242Z,9.55
